F/V Berriz Patxiku — ECES — position and weather

sailwx.info

Track history (hours):
 
Tides and Currents Weather Stations Pressure Air Temp Water Temp Dewpoint Dewpoint Depression Visibility Wind Speed Wind Dir Waves Ship Positions

F/V Berriz Patxiku

Last reported at 2017-Aug-22 07:29 UTC. Time now 2017-Aug-22 07:28 UTC.
Position N 43°18' W 002°12'.

Length 30 m.

Type: Fishing. MMSI: 224106260.

Date/timePositionNaut miles runAvg speedWind from/ knotsBaromVisibWave heightAir tempDewpointWater temp
2017-Aug-22 07:29N 43°18' W 002°12'0 0.0
2017-Aug-22 07:01N 43°18' W 002°12'0 0.0
2017-Aug-22 06:30N 43°18' W 002°12'0 0.0
2017-Aug-22 06:00N 43°18' W 002°12'0 0.0
2017-Aug-22 05:30N 43°18' W 002°12'0 0.0
2017-Aug-22 05:00N 43°18' W 002°12'0 0.0
2017-Aug-22 04:30N 43°18' W 002°12'3 6.8
2017-Aug-22 04:00N 43°21' W 002°15'3 5.1
2017-Aug-22 03:30N 43°21' W 002°18'0 0.8
2017-Aug-22 02:55N 43°21' W 002°18'1 0.7
2017-Aug-22 01:42N 43°20' W 002°18'0 1.2
2017-Aug-22 01:27N 43°20' W 002°17'0 1.0
2017-Aug-22 00:59N 43°20' W 002°16'2 0.8
2017-Aug-21 23:11N 43°20' W 002°14'0 0.8
2017-Aug-21 22:59N 43°20' W 002°14'1 0.9
2017-Aug-21 22:19N 43°20' W 002°13'0 0.9
2017-Aug-21 22:00N 43°20' W 002°13'1 0.5
2017-Aug-21 19:14N 43°19' W 002°12'  
2017-Aug-18 04:51N 43°21' W 001°57'0 0.2
2017-Aug-18 04:27N 43°21' W 001°57'0 0.4
2017-Aug-18 03:57N 43°21' W 001°58'1 1.3
2017-Aug-18 03:01N 43°22' W 001°56'0 0.1
2017-Aug-18 02:55N 43°22' W 001°56'0 0.1
2017-Aug-18 02:28N 43°22' W 001°56'0 0.1
2017-Aug-18 01:57N 43°22' W 001°56'2 1.4
2017-Aug-18 00:41N 43°21' W 001°58'0 0.3
2017-Aug-18 00:11N 43°21' W 001°58'0 1.2
2017-Aug-18 00:00N 43°21' W 001°58'0 0.0
2017-Aug-17 23:21N 43°21' W 001°58'0 0.0
2017-Aug-17 23:00N 43°21' W 001°58'0 0.0
2017-Aug-17 21:16N 43°21' W 001°58'0 0.2
2017-Aug-17 21:00N 43°21' W 001°58'0 0.2
2017-Aug-17 20:30N 43°21' W 001°58'0 0.2
2017-Aug-17 20:00N 43°21' W 001°57'2 5.0
2017-Aug-17 19:31N 43°21' W 002°01'6 9.3
2017-Aug-17 18:55N 43°18' W 002°08'3 5.3
2017-Aug-17 18:19N 43°18' W 002°12'0 0.0
2017-Aug-17 17:58N 43°18' W 002°12'0 0.0
2017-Aug-17 17:30N 43°18' W 002°12'0 0.0
2017-Aug-17 16:55N 43°18' W 002°12'0 0.0
2017-Aug-17 13:54N 43°18' W 002°12'0 0.0
2017-Aug-17 13:30N 43°18' W 002°12'0 0.0
2017-Aug-17 12:54N 43°18' W 002°12'0 0.0
2017-Aug-17 12:30N 43°18' W 002°12'0 0.0
2017-Aug-17 11:56N 43°18' W 002°12'0 0.0
2017-Aug-17 11:30N 43°18' W 002°12'0 0.0
2017-Aug-17 11:00N 43°18' W 002°12'0 0.0
2017-Aug-17 09:51N 43°18' W 002°12'10 3.4
2017-Aug-17 06:56N 43°21' W 002°25'3 7.5
2017-Aug-17 06:29N 43°23' W 002°28'15 5.4
2017-Aug-17 03:48N 43°28' W 002°47'0 0.3
2017-Aug-17 02:50N 43°28' W 002°47'0 0.4
2017-Aug-17 02:24N 43°28' W 002°47'  
Track history (hours):
 
Tides and Currents Weather Stations Pressure Air Temp Water Temp Dewpoint Dewpoint Depression Visibility Wind Speed Wind Dir Waves Ship Positions

F/V Berriz Patxiku

Last reported at 2017-Aug-22 07:29 UTC. Time now 2017-Aug-22 07:28 UTC.
Position N 43°18' W 002°12'.

Length 30 m.

Type: Fishing. MMSI: 224106260.

Date/timePositionNaut miles runAvg speedWind from/ knotsBaromVisibWave heightAir tempDewpointWater temp
2017-Aug-22 07:29N 43°18' W 002°12'0 0.0
2017-Aug-22 07:01N 43°18' W 002°12'0 0.0
2017-Aug-22 06:30N 43°18' W 002°12'0 0.0
2017-Aug-22 06:00N 43°18' W 002°12'0 0.0
2017-Aug-22 05:30N 43°18' W 002°12'0 0.0
2017-Aug-22 05:00N 43°18' W 002°12'0 0.0
2017-Aug-22 04:30N 43°18' W 002°12'3 6.8
2017-Aug-22 04:00N 43°21' W 002°15'3 5.1
2017-Aug-22 03:30N 43°21' W 002°18'0 0.8
2017-Aug-22 02:55N 43°21' W 002°18'1 0.7
2017-Aug-22 01:42N 43°20' W 002°18'0 1.2
2017-Aug-22 01:27N 43°20' W 002°17'0 1.0
2017-Aug-22 00:59N 43°20' W 002°16'2 0.8
2017-Aug-21 23:11N 43°20' W 002°14'0 0.8
2017-Aug-21 22:59N 43°20' W 002°14'1 0.9
2017-Aug-21 22:19N 43°20' W 002°13'0 0.9
2017-Aug-21 22:00N 43°20' W 002°13'1 0.5
2017-Aug-21 19:14N 43°19' W 002°12'  
2017-Aug-18 04:51N 43°21' W 001°57'0 0.2
2017-Aug-18 04:27N 43°21' W 001°57'0 0.4
2017-Aug-18 03:57N 43°21' W 001°58'1 1.3
2017-Aug-18 03:01N 43°22' W 001°56'0 0.1
2017-Aug-18 02:55N 43°22' W 001°56'0 0.1
2017-Aug-18 02:28N 43°22' W 001°56'0 0.1
2017-Aug-18 01:57N 43°22' W 001°56'2 1.4
2017-Aug-18 00:41N 43°21' W 001°58'0 0.3
2017-Aug-18 00:11N 43°21' W 001°58'0 1.2
2017-Aug-18 00:00N 43°21' W 001°58'0 0.0
2017-Aug-17 23:21N 43°21' W 001°58'0 0.0
2017-Aug-17 23:00N 43°21' W 001°58'0 0.0
2017-Aug-17 21:16N 43°21' W 001°58'0 0.2
2017-Aug-17 21:00N 43°21' W 001°58'0 0.2
2017-Aug-17 20:30N 43°21' W 001°58'0 0.2
2017-Aug-17 20:00N 43°21' W 001°57'2 5.0
2017-Aug-17 19:31N 43°21' W 002°01'6 9.3
2017-Aug-17 18:55N 43°18' W 002°08'3 5.3
2017-Aug-17 18:19N 43°18' W 002°12'0 0.0
2017-Aug-17 17:58N 43°18' W 002°12'0 0.0
2017-Aug-17 17:30N 43°18' W 002°12'0 0.0
2017-Aug-17 16:55N 43°18' W 002°12'0 0.0
2017-Aug-17 13:54N 43°18' W 002°12'0 0.0
2017-Aug-17 13:30N 43°18' W 002°12'0 0.0
2017-Aug-17 12:54N 43°18' W 002°12'0 0.0
2017-Aug-17 12:30N 43°18' W 002°12'0 0.0
2017-Aug-17 11:56N 43°18' W 002°12'0 0.0
2017-Aug-17 11:30N 43°18' W 002°12'0 0.0
2017-Aug-17 11:00N 43°18' W 002°12'0 0.0
2017-Aug-17 09:51N 43°18' W 002°12'10 3.4
2017-Aug-17 06:56N 43°21' W 002°25'3 7.5
2017-Aug-17 06:29N 43°23' W 002°28'15 5.4
2017-Aug-17 03:48N 43°28' W 002°47'0 0.3
2017-Aug-17 02:50N 43°28' W 002°47'0 0.4
2017-Aug-17 02:24N 43°28' W 002°47'  

Dump ship's entire track history